Nearby METAR Reports

 

K27K - Georgetown, Kentucky, USA
Distance from station: NE 1mi, 3km
Updated: Tue, 22-Sep-2020 3:15am EDT

 Wind from calm
Wind: Calm
Temperature: 45°F , 7°C
Dew Point: 45°F , 7°C
Humidity: 100%
Barometer: 30.29 inHg , 1025.7 hPa
2020/09/22 07:15 K27K 220715Z AUTO 00000KT 07/07 A3029 RMK AO1
KLEX - Lexington, Kentucky, USA
Distance from station: SE 25mi, 38km
Updated: Tue, 22-Sep-2020 1:54am EDT
Clear
Clear
 Wind from S
Wind: S 3 mph , 6 km/h
Temperature: 50°F , 10°C
Dew Point: 46°F , 8°C
Humidity: 88%
Barometer: 30.29 inHg , 1025.7 hPa
Clouds: Clear
Visibility: 10 miles , 16 km
2020/09/22 05:54 KLEX 220554Z 17003KT 10SM CLR 10/08 A3029 RMK AO2 SLP255 T01000083 10172 20094 58007
 
KFFT - Frankfort, Kentucky, USA
Distance from station: WNW 24mi, 38km
Updated: Tue, 22-Sep-2020 1:53am EDT
Clear
Clear
 Wind from calm
Wind: Calm
Temperature: 48°F , 9°C
Dew Point: 45°F , 7°C
Humidity: 87%
Barometer: 30.29 inHg , 1025.7 hPa
Clouds: Clear
Visibility: 10 miles , 16 km
2020/09/22 05:53 KFFT 220553Z AUTO 00000KT 10SM CLR 09/07 A3029 RMK AO2 SLP254 T00890067 10183 20089 58005
KIOB - Mount Sterling, Kentucky, USA
Distance from station: E 28mi, 46km
Updated: Tue, 22-Sep-2020 2:35am EDT
Clear
Clear
 Wind from calm
Wind: Calm
Temperature: 46°F , 8°C
Dew Point: 45°F , 7°C
Humidity: 93%
Barometer: 30.31 inHg , 1026.4 hPa
Clouds: Clear
Visibility: 10 miles , 16 km
2020/09/22 06:35 KIOB 220635Z AUTO 00000KT 10SM CLR 08/07 A3031 RMK AO2
 
KDVK - Danville, Kentucky, USA
Distance from station: SSW 35mi, 56km
Updated: Tue, 22-Sep-2020 2:30am EDT
Clear
Clear
 Wind from calm
Wind: Calm
Temperature: 46°F , 8°C
Dew Point: 46°F , 8°C
Humidity: 100%
Barometer: 30.30 inHg , 1026.1 hPa
Clouds: Clear
Visibility: 10 miles , 16 km
2020/09/22 06:30 KDVK 220630Z AUTO 00000KT 10SM CLR 08/08 A3030 RMK AO2
K6I2 - Springfield, Kentucky, USA
Distance from station: SW 49mi, 80km
Updated: Tue, 22-Sep-2020 2:25am EDT
Clear
Clear
 Wind from calm
Wind: Calm
Temperature: 52°F , 11°C
Dew Point: 52°F , 11°C
Humidity: 100%
Barometer: 30.28 inHg , 1025.4 hPa
Clouds: Clear
Visibility: 10 miles , 16 km
2020/09/22 06:25 K6I2 220625Z AUTO 00000KT 10SM CLR 11/11 A3028 RMK AO2
 
KSYM - Morehead, Kentucky, USA
Distance from station: ENE 51mi, 83km
Updated: Mon, 21-Sep-2020 9:35am EDT
NOT Current
Clear
Clear
 Wind from varies
Wind: varies 6 mph , 9 km/h, Gust: 13 mph , 20 km/h
Temperature: 55°F , 13°C
Dew Point: 41°F , 5°C
Humidity: 59%
Barometer: 30.46 inHg , 1031.5 hPa
Clouds: Clear
Visibility: 10 miles , 16 km
2020/09/21 13:35 KSYM 211335Z AUTO VRB05G11KT 10SM CLR 13/05 A3046 RMK AO2
KFGX - Flemingsburg, Kentucky, USA
Distance from station: NE 54mi, 87km
Updated: Tue, 22-Sep-2020 2:35am EDT
Clear
Clear
 Wind from SE
Wind: SE 3 mph , 6 km/h
Temperature: 48°F , 9°C
Dew Point: 48°F , 9°C
Humidity: 100%
Barometer: 30.31 inHg , 1026.4 hPa
Clouds: Clear
Visibility: 10 miles , 16 km
2020/09/22 06:35 KFGX 220635Z AUTO 14003KT 10SM CLR 09/09 A3031 RMK AO2 T00900087
 
KLOU - Louisville/Bowmn, Kentucky, USA
Distance from station: W 64mi, 104km
Updated: Tue, 22-Sep-2020 1:53am EDT
Clear
Clear
 Wind from calm
Wind: Calm
Temperature: 55°F , 13°C
Dew Point: 48°F , 9°C
Humidity: 77%
Barometer: 30.28 inHg , 1025.4 hPa
Clouds: Clear
Visibility: 10 miles , 16 km
2020/09/22 05:53 KLOU 220553Z AUTO 00000KT 10SM CLR 13/09 A3028 RMK AO2 SLP250 T01280089 10211 20122 58005
KSDF - Louisville, Kentucky, USA
Distance from station: W 68mi, 109km
Updated: Tue, 22-Sep-2020 1:56am EDT
Clear
Clear
 Wind from E
Wind: E 3 mph , 6 km/h
Temperature: 61°F , 16°C
Dew Point: 50°F , 10°C
Humidity: 68%
Barometer: 30.27 inHg , 1025.1 hPa
Clouds: Clear
Visibility: 10 miles , 16 km
2020/09/22 05:56 KSDF 220556Z 10003KT 10SM CLR 16/10 A3027 RMK AO2 SLP248 T01560100 10228 20156 58007
 
KSME - Somerset, Kentucky, USA
Distance from station: S 69mi, 111km
Updated: Tue, 22-Sep-2020 2:35am EDT
Clear
Clear
 Wind from calm
Wind: Calm
Temperature: 46°F , 8°C
Dew Point: 45°F , 7°C
Humidity: 93%
Barometer: 30.30 inHg , 1026.1 hPa
Clouds: Clear
Visibility: 10 miles , 16 km
2020/09/22 06:35 KSME 220635Z AUTO 00000KT 10SM CLR 08/07 A3030 RMK AO2
KCVG - Covington, Kentucky, USA
Distance from station: N 70mi, 113km
Updated: Tue, 22-Sep-2020 1:52am EDT
Clear
Clear
 Wind from SSE
Wind: SSE 3 mph , 6 km/h
Temperature: 55°F , 13°C
Dew Point: 45°F , 7°C
Humidity: 67%
Barometer: 30.29 inHg , 1025.7 hPa
Clouds: Clear
Visibility: 10 miles , 16 km
2020/09/22 05:52 KCVG 220552Z 16003KT 10SM CLR 13/07 A3029 RMK AO2 SLP253 T01330072 10178 20122 58007 $
 
KLOZ - London, Kentucky, USA
Distance from station: SSE 70mi, 113km
Updated: Tue, 22-Sep-2020 1:53am EDT
Clear
Clear
 Wind from calm
Wind: Calm
Temperature: 48°F , 9°C
Dew Point: 46°F , 8°C
Humidity: 94%
Barometer: 30.31 inHg , 1026.4 hPa
Clouds: Clear
Visibility: 10 miles , 16 km
2020/09/22 05:53 KLOZ 220553Z AUTO 00000KT 10SM CLR 09/08 A3031 RMK AO2 SLP258 T00890083 10172 20089 56004
KJKL - Noctor/Jackson, Kentucky, USA
Distance from station: ESE 72mi, 115km
Updated: Tue, 22-Sep-2020 1:53am EDT
Clear
Clear
 Wind from calm
Wind: Calm
Temperature: 54°F , 12°C
Dew Point: 46°F , 8°C
Humidity: 77%
Barometer: 30.29 inHg , 1025.7 hPa
Clouds: Clear
Visibility: 10 miles , 16 km
2020/09/22 05:53 KJKL 220553Z AUTO 00000KT 10SM CLR 12/08 A3029 RMK AO2 SLP252 T01220078 10161 20122 58007
 
KIMS - Madison, Indiana, USA
Distance from station: NW 72mi, 116km
Updated: Tue, 22-Sep-2020 2:35am EDT
Clear
Clear
 Wind from calm
Wind: Calm
Temperature: 46°F , 8°C
Dew Point: 46°F , 8°C
Humidity: 100%
Barometer: 30.30 inHg , 1026.1 hPa
Clouds: Clear
Visibility: 10 miles , 16 km
2020/09/22 06:35 KIMS 220635Z AUTO 00000KT 10SM CLR 08/08 A3030 RMK AO1
KLUK - Cincinnat/Lunken, Ohio, USA
Distance from station: N 73mi, 118km
Updated: Tue, 22-Sep-2020 2:41am EDT
Mist, Clear
Mist, Clear
 Wind from calm
Wind: Calm
Temperature: 45°F , 7°C
Dew Point: 45°F , 7°C
Humidity: 100%
Barometer: 30.31 inHg , 1026.4 hPa
Summary: Mist
Clouds: Clear
Visibility: 4 miles , 6 km
2020/09/22 06:41 KLUK 220641Z AUTO 00000KT 4SM BR CLR 07/07 A3031 RMK AO2 T00720067
 
KI69 - Batavia, Ohio, USA
Distance from station: NNE 74mi, 119km
Updated: Tue, 22-Sep-2020 2:35am EDT
Clear
Clear
 Wind from calm
Wind: Calm
Temperature: 48°F , 9°C
Dew Point: 46°F , 8°C
Humidity: 94%
Barometer: 30.31 inHg , 1026.4 hPa
Clouds: Clear
Visibility: 10 miles , 16 km
2020/09/22 06:35 KI69 220635Z AUTO 00000KT 10SM CLR 09/08 A3031 RMK AO2 T00850075